Kota Kinabalu, Malaysia
Current Conditions -  °F | °C
As of 5:00 PM on Friday 31 Oct 2014 (Local Time) from WBKK Reporting Station
Broken Clouds Broken Clouds  
Wind Chill: 30°   Ceiling: 13000
Heat Index: 36°   Visibility: 6mi
Dew Point: 25°   Wind: 0mph
Humidity: 74%   Direction: NA
Pressure: 29.74"   Gusts: NA
Location:  5.97°N, 116.07°E
Report Text: WBKK 310900Z 00000KT 9999 FEW014 FEW017CB BKN130 BKN260 30/25 Q1007 NOSIG
Loading
Personal Weather Stations






























Interactive Weather Map New forecast layout! Learn more

10-Day Weather Forecast

Advertisements
Track Severe Weather on mobile